createdAt,value
2019-03-12T00:01:04.509Z,3.50
2019-03-12T00:03:33.699Z,4.15
2019-03-12T00:06:02.800Z,4.57
2019-03-12T00:08:31.893Z,5.00
2019-03-12T00:11:00.971Z,3.57
2019-03-12T00:13:30.086Z,4.47
2019-03-12T00:15:59.180Z,3.50
2019-03-12T00:18:28.809Z,3.60
2019-03-12T00:20:58.034Z,4.00
2019-03-12T00:23:27.229Z,3.97
2019-03-12T00:25:56.334Z,3.45
2019-03-12T00:28:25.433Z,3.67
2019-03-12T00:30:54.542Z,3.63
2019-03-12T00:33:23.640Z,3.33
2019-03-12T00:35:52.739Z,3.00
2019-03-12T00:38:21.847Z,3.20
2019-03-12T00:40:50.948Z,3.13
2019-03-12T00:43:20.021Z,3.13
2019-03-12T00:45:49.124Z,3.43
2019-03-12T00:48:18.214Z,3.20
2019-03-12T00:50:47.322Z,3.70
2019-03-12T00:53:16.421Z,3.60
2019-03-12T00:55:45.516Z,3.03
2019-03-12T00:58:14.605Z,2.90
2019-03-12T01:00:43.692Z,2.70
2019-03-12T01:03:12.830Z,2.75
2019-03-12T01:05:41.934Z,3.35
2019-03-12T01:08:11.093Z,3.25
2019-03-12T01:10:40.190Z,3.00
2019-03-12T01:13:18.915Z,3.30
2019-03-12T01:15:48.022Z,3.20
2019-03-12T01:18:17.131Z,3.30
2019-03-12T01:20:46.324Z,3.00
2019-03-12T01:23:15.462Z,2.90
2019-03-12T01:25:44.583Z,3.20
2019-03-12T01:28:13.666Z,3.52
2019-03-12T01:30:42.778Z,3.77
2019-03-12T01:33:11.877Z,3.87
2019-03-12T01:35:41.007Z,4.22
2019-03-12T01:38:10.033Z,3.62
2019-03-12T01:40:39.152Z,4.03
2019-03-12T01:43:08.248Z,4.33
2019-03-12T01:45:37.319Z,4.00
2019-03-12T01:48:06.440Z,4.30
2019-03-12T01:50:35.538Z,3.90
2019-03-12T01:53:04.648Z,4.58
2019-03-12T01:55:33.742Z,3.60
2019-03-12T01:58:02.892Z,4.30
2019-03-12T02:00:32.012Z,3.62
2019-03-12T02:03:01.126Z,3.87
2019-03-12T02:05:30.220Z,3.42
2019-03-12T02:07:59.244Z,3.75
2019-03-12T02:10:28.338Z,4.08
2019-03-12T02:12:57.447Z,4.70
2019-03-12T02:15:26.506Z,3.80
2019-03-12T02:17:55.615Z,3.83
2019-03-12T02:20:24.710Z,3.75
2019-03-12T02:22:53.822Z,4.03
2019-03-12T02:25:22.946Z,3.92
2019-03-12T02:27:52.058Z,3.80
2019-03-12T02:30:21.672Z,4.25
2019-03-12T02:32:50.822Z,4.55
2019-03-12T02:35:19.925Z,3.72
2019-03-12T02:37:49.058Z,4.60
2019-03-12T02:40:18.137Z,4.53
2019-03-12T02:42:47.270Z,4.58
2019-03-12T02:45:16.470Z,3.83
2019-03-12T02:47:45.583Z,4.20
2019-03-12T02:50:14.666Z,3.90
2019-03-12T02:52:43.756Z,4.70
2019-03-12T02:55:13.177Z,4.30
2019-03-12T02:57:42.270Z,4.53
2019-03-12T03:00:15.707Z,4.30
2019-03-12T03:02:44.803Z,3.90
2019-03-12T03:05:13.934Z,4.33
2019-03-12T03:07:53.763Z,3.72
2019-03-12T03:10:22.976Z,6.50
2019-03-12T03:12:52.187Z,4.95
2019-03-12T03:15:23.441Z,5.00
2019-03-12T03:17:52.539Z,5.28
2019-03-12T03:20:21.615Z,5.33
2019-03-12T03:22:50.726Z,5.33
2019-03-12T03:25:19.842Z,5.25
2019-03-12T03:27:48.975Z,4.47
2019-03-12T03:30:20.293Z,4.85
2019-03-12T03:32:49.395Z,4.22
2019-03-12T03:35:18.602Z,3.95
2019-03-12T03:37:47.757Z,4.08
2019-03-12T03:40:18.674Z,3.62
2019-03-12T03:42:48.196Z,3.98
2019-03-12T03:45:17.468Z,3.87
2019-03-12T03:47:46.579Z,3.72
2019-03-12T03:50:15.778Z,3.80
2019-03-12T03:52:44.884Z,3.47
2019-03-12T03:55:15.220Z,4.28
2019-03-12T03:57:44.322Z,3.42
2019-03-12T04:00:18.631Z,3.33
2019-03-12T04:02:47.729Z,3.92
2019-03-12T04:05:17.132Z,3.52
2019-03-12T04:07:46.257Z,3.90
2019-03-12T04:10:15.821Z,3.15
2019-03-12T04:12:44.911Z,3.15
2019-03-12T04:15:14.317Z,3.72
2019-03-12T04:17:43.548Z,3.40
2019-03-12T04:20:12.885Z,3.12
2019-03-12T04:22:42.021Z,3.77
2019-03-12T04:25:11.831Z,3.98
2019-03-12T04:27:40.992Z,3.77
2019-03-12T04:30:11.410Z,3.30
2019-03-12T04:32:40.523Z,3.80
2019-03-12T04:35:11.042Z,4.15
2019-03-12T04:37:40.144Z,4.00
2019-03-12T04:40:09.763Z,4.80
2019-03-12T04:42:38.843Z,4.35
2019-03-12T04:45:09.418Z,4.42
2019-03-12T04:47:38.508Z,4.35
2019-03-12T04:50:07.817Z,4.83
2019-03-12T04:52:36.923Z,4.20
2019-03-12T04:55:06.323Z,4.62
2019-03-12T04:57:35.430Z,4.72
2019-03-12T05:00:05.530Z,4.92
2019-03-12T05:02:34.642Z,4.92
2019-03-12T05:05:04.137Z,5.03
2019-03-12T05:07:33.256Z,4.60
2019-03-12T05:10:02.370Z,4.20
2019-03-12T05:12:31.474Z,4.12
2019-03-12T05:15:00.565Z,4.03
2019-03-12T05:17:31.855Z,4.10
2019-03-12T05:20:01.087Z,3.55
2019-03-12T05:22:30.163Z,3.37
2019-03-12T05:24:59.272Z,4.05
2019-03-12T05:27:28.365Z,4.17
2019-03-12T05:29:57.490Z,4.65
2019-03-12T05:32:26.564Z,4.45
2019-03-12T05:34:55.690Z,3.62
2019-03-12T05:37:24.788Z,2.87
2019-03-12T05:39:53.960Z,3.15
2019-03-12T05:42:23.149Z,2.92
2019-03-12T05:44:52.634Z,3.17
2019-03-12T05:47:21.736Z,3.45
2019-03-12T05:49:50.854Z,3.70
2019-03-12T05:52:19.958Z,3.47
2019-03-12T05:54:49.052Z,4.22
2019-03-12T05:57:18.153Z,3.37
2019-03-12T05:59:47.257Z,3.35
2019-03-12T06:02:16.363Z,3.10
2019-03-12T06:04:45.460Z,4.37
2019-03-12T06:07:14.569Z,4.17
2019-03-12T06:09:43.644Z,3.60
2019-03-12T06:12:12.762Z,3.10
2019-03-12T06:14:41.881Z,3.47
2019-03-12T06:17:11.044Z,3.83
2019-03-12T06:19:40.124Z,3.42
2019-03-12T06:22:11.785Z,3.60
2019-03-12T06:24:40.034Z,3.47
2019-03-12T06:27:09.137Z,3.10
2019-03-12T06:29:38.247Z,3.20
2019-03-12T06:32:23.044Z,3.15
2019-03-12T06:35:06.185Z,3.17
2019-03-12T06:37:52.962Z,3.40
2019-03-12T06:40:48.341Z,3.08
2019-03-12T06:43:24.460Z,3.55
2019-03-12T06:46:18.640Z,3.70
2019-03-12T06:48:52.435Z,3.05
2019-03-12T06:51:49.415Z,3.72
2019-03-12T06:54:37.556Z,3.47
2019-03-12T06:57:34.666Z,3.30
2019-03-12T07:00:29.224Z,3.07
2019-03-12T07:03:11.214Z,3.13
2019-03-12T07:05:49.950Z,3.20
2019-03-12T07:08:38.103Z,3.47
2019-03-12T07:11:26.276Z,3.17
2019-03-12T07:14:22.703Z,2.77
2019-03-12T07:17:04.613Z,3.00
2019-03-12T07:19:47.543Z,2.83
2019-03-12T07:22:34.554Z,3.10
2019-03-12T07:25:08.963Z,3.27
2019-03-12T07:27:49.202Z,3.00
2019-03-12T07:30:55.978Z,3.10
2019-03-12T07:33:46.345Z,3.23
2019-03-12T07:36:26.232Z,3.00
2019-03-12T07:39:23.670Z,3.03
2019-03-12T07:42:14.659Z,3.33
2019-03-12T07:45:08.873Z,3.33
2019-03-12T07:47:55.630Z,3.40
2019-03-12T07:50:42.819Z,3.03
2019-03-12T07:53:41.429Z,3.40
2019-03-12T07:56:27.084Z,3.20
2019-03-12T07:59:11.899Z,3.03
2019-03-12T08:02:09.137Z,3.23
2019-03-12T08:05:09.309Z,3.30
2019-03-12T08:07:57.472Z,3.03
2019-03-12T08:10:44.227Z,3.20
2019-03-12T08:13:31.174Z,3.30
2019-03-12T08:16:22.328Z,3.77
2019-03-12T08:19:13.260Z,3.57
2019-03-12T08:22:01.397Z,3.30
2019-03-12T08:24:35.018Z,3.70
2019-03-12T08:27:14.649Z,3.10
2019-03-12T08:30:05.683Z,3.13
2019-03-12T08:32:52.560Z,3.03
2019-03-12T08:35:40.738Z,3.67
2019-03-12T08:38:31.640Z,3.30
2019-03-12T08:41:18.641Z,3.13
2019-03-12T08:43:56.326Z,3.70
2019-03-12T08:46:45.754Z,3.17
2019-03-12T08:49:25.122Z,3.20
2019-03-12T08:52:13.245Z,3.20
2019-03-12T08:55:03.984Z,3.07
2019-03-12T08:57:46.937Z,2.77
2019-03-12T09:00:38.228Z,2.67
2019-03-12T09:03:31.196Z,3.00
2019-03-12T09:06:13.501Z,2.80
2019-03-12T09:08:52.503Z,2.67
2019-03-12T09:11:39.665Z,3.10
2019-03-12T09:14:27.812Z,2.30
2019-03-12T09:17:08.425Z,2.90
2019-03-12T09:19:47.884Z,2.83
2019-03-12T09:22:39.032Z,2.50
2019-03-12T09:25:27.242Z,2.77
2019-03-12T09:28:15.132Z,2.90
2019-03-12T09:30:55.307Z,2.43
2019-03-12T09:33:44.157Z,2.60
2019-03-12T09:36:24.345Z,2.67
2019-03-12T09:39:01.286Z,2.73
2019-03-12T09:41:49.448Z,2.33
2019-03-12T09:44:30.092Z,3.40
2019-03-12T09:47:05.734Z,2.97
2019-03-12T09:49:57.448Z,3.37
2019-03-12T09:52:32.583Z,2.37
2019-03-12T09:55:19.465Z,2.80
2019-03-12T09:58:06.504Z,2.90
2019-03-12T10:00:43.566Z,2.70
2019-03-12T10:03:37.354Z,2.60
2019-03-12T10:06:21.176Z,2.73
2019-03-12T10:09:15.554Z,2.27
2019-03-12T10:11:51.021Z,2.70
2019-03-12T10:14:39.671Z,2.93
2019-03-12T10:17:33.926Z,2.77
2019-03-12T10:20:20.670Z,3.20
2019-03-12T10:23:17.962Z,2.73
2019-03-12T10:26:04.917Z,2.90
2019-03-12T10:28:51.855Z,2.90
2019-03-12T10:31:43.004Z,2.47
2019-03-12T10:34:33.927Z,2.77
2019-03-12T10:37:16.409Z,2.87
2019-03-12T10:40:10.925Z,3.33
2019-03-12T10:43:19.681Z,3.20
2019-03-12T10:46:16.935Z,2.90
2019-03-12T10:48:46.025Z,2.70
2019-03-12T10:51:15.167Z,3.00
2019-03-12T10:53:44.281Z,2.90
2019-03-12T10:56:13.459Z,3.00
2019-03-12T10:58:42.584Z,3.40
2019-03-12T11:01:12.008Z,3.07
2019-03-12T11:03:41.095Z,2.80
2019-03-12T11:06:10.223Z,2.67
2019-03-12T11:08:39.338Z,2.77
2019-03-12T11:11:08.503Z,2.63
2019-03-12T11:13:37.605Z,2.77
2019-03-12T11:16:07.075Z,2.80
2019-03-12T11:18:36.139Z,2.57
2019-03-12T11:21:05.334Z,2.27
2019-03-12T11:23:34.419Z,3.10
2019-03-12T11:26:03.507Z,2.37
2019-03-12T11:28:32.595Z,2.60
2019-03-12T11:31:01.687Z,2.43
2019-03-12T11:33:30.764Z,2.63
2019-03-12T11:35:59.880Z,2.43
2019-03-12T11:38:29.028Z,2.93
2019-03-12T11:40:58.140Z,2.30
2019-03-12T11:43:27.402Z,2.50
2019-03-12T11:45:56.565Z,2.43
2019-03-12T11:48:25.681Z,2.73
2019-03-12T11:50:55.282Z,2.60
2019-03-12T11:53:24.621Z,2.60
2019-03-12T11:55:54.109Z,2.97
2019-03-12T11:58:23.430Z,2.67
2019-03-12T12:00:58.180Z,2.90
2019-03-12T12:03:27.301Z,2.67
2019-03-12T12:05:56.430Z,2.60
2019-03-12T12:08:25.565Z,1.87
2019-03-12T12:10:54.823Z,2.83
2019-03-12T12:13:23.946Z,3.20
2019-03-12T12:15:54.059Z,2.40
2019-03-12T12:18:23.180Z,2.13
2019-03-12T12:20:52.391Z,2.03
2019-03-12T12:23:21.487Z,2.17
2019-03-12T12:25:50.967Z,2.03
2019-03-12T12:28:20.073Z,2.00
2019-03-12T12:30:49.151Z,2.07
2019-03-12T12:33:18.339Z,2.03
2019-03-12T12:35:47.440Z,2.40
2019-03-12T12:38:16.537Z,2.30
2019-03-12T12:40:45.657Z,2.00
2019-03-12T12:43:14.781Z,2.10
2019-03-12T12:45:43.884Z,1.83
2019-03-12T12:48:12.955Z,2.13
2019-03-12T12:50:42.083Z,2.00
2019-03-12T12:53:11.212Z,2.10
2019-03-12T12:55:40.309Z,2.00
2019-03-12T12:58:09.713Z,2.10
2019-03-12T13:00:38.892Z,2.30
2019-03-12T13:03:07.999Z,2.17
2019-03-12T13:05:37.097Z,1.83
2019-03-12T13:08:06.175Z,1.97
2019-03-12T13:10:35.265Z,2.00
2019-03-12T13:13:04.364Z,1.73
2019-03-12T13:15:33.475Z,2.10
2019-03-12T13:18:02.605Z,1.93
2019-03-12T13:20:31.719Z,2.63
2019-03-12T13:23:00.884Z,1.70
2019-03-12T13:25:30.056Z,2.17
2019-03-12T13:27:59.171Z,1.90
2019-03-12T13:30:28.295Z,2.07
2019-03-12T13:32:57.488Z,2.10
2019-03-12T13:35:26.763Z,1.83
2019-03-12T13:37:55.881Z,1.60
2019-03-12T13:40:25.511Z,1.63
2019-03-12T13:42:54.676Z,1.77
2019-03-12T13:45:24.162Z,1.47
2019-03-12T13:47:53.325Z,1.50
2019-03-12T13:50:22.527Z,1.70
2019-03-12T13:52:51.852Z,1.37
2019-03-12T13:55:21.132Z,1.57
2019-03-12T13:57:50.273Z,1.87
2019-03-12T14:00:20.326Z,2.20
2019-03-12T14:02:49.785Z,1.77
2019-03-12T14:05:18.891Z,1.80
2019-03-12T14:07:48.007Z,1.93
2019-03-12T14:10:19.120Z,2.03
2019-03-12T14:12:48.300Z,1.83
2019-03-12T14:15:19.745Z,1.60
2019-03-12T14:17:48.841Z,2.03
2019-03-12T14:20:53.661Z,1.60
2019-03-12T14:23:31.080Z,1.80
2019-03-12T14:26:01.241Z,1.70
2019-03-12T14:28:30.425Z,1.53
2019-03-12T14:30:59.690Z,1.83
2019-03-12T14:33:28.844Z,1.97
2019-03-12T14:35:58.055Z,1.93
2019-03-12T14:38:27.225Z,1.80
2019-03-12T14:40:56.401Z,1.40
2019-03-12T14:43:25.727Z,1.73
2019-03-12T14:45:55.242Z,1.53
2019-03-12T14:48:44.800Z,1.50
2019-03-12T14:51:18.723Z,1.60
2019-03-12T14:53:48.875Z,1.80
2019-03-12T14:56:18.010Z,1.60
2019-03-12T14:58:47.136Z,1.60
2019-03-12T15:01:16.391Z,1.83
2019-03-12T15:03:45.574Z,2.50
2019-03-12T15:06:14.727Z,1.80
2019-03-12T15:08:43.728Z,1.33
2019-03-12T15:11:12.819Z,1.97
2019-03-12T15:13:41.902Z,1.40
2019-03-12T15:16:11.008Z,1.33
2019-03-12T15:18:40.094Z,1.57
2019-03-12T15:21:09.272Z,1.17
2019-03-12T15:23:38.345Z,1.50
2019-03-12T15:26:10.392Z,1.43
2019-03-12T15:28:39.523Z,1.40
2019-03-12T15:31:08.686Z,1.30
2019-03-12T15:33:37.813Z,1.60
2019-03-12T15:36:06.884Z,1.67
2019-03-12T15:38:35.998Z,1.30
2019-03-12T15:41:05.122Z,1.63
2019-03-12T15:43:34.222Z,1.20
2019-03-12T15:46:03.344Z,1.47
2019-03-12T15:48:32.429Z,1.37
2019-03-12T15:51:01.517Z,1.40
2019-03-12T15:53:30.669Z,1.43
2019-03-12T15:55:59.779Z,1.50
2019-03-12T15:58:28.875Z,1.33
2019-03-12T16:00:57.970Z,1.60
2019-03-12T16:03:27.060Z,1.30
2019-03-12T16:05:56.250Z,1.30
2019-03-12T16:08:25.332Z,1.53
2019-03-12T16:10:58.329Z,1.40
2019-03-12T16:13:25.332Z,2.97
2019-03-12T16:15:54.472Z,2.13
2019-03-12T16:18:25.141Z,1.80
2019-03-12T16:20:54.710Z,1.37
2019-03-12T16:23:23.776Z,1.37
2019-03-12T16:25:52.869Z,1.77
2019-03-12T16:28:21.994Z,1.50
2019-03-12T16:30:51.115Z,1.77
2019-03-12T16:33:20.219Z,1.40
2019-03-12T16:35:49.330Z,1.43
2019-03-12T16:38:18.827Z,1.50
2019-03-12T16:40:48.055Z,1.40
2019-03-12T16:43:17.260Z,1.40
2019-03-12T16:45:46.565Z,1.20
2019-03-12T16:48:15.782Z,1.20
2019-03-12T16:50:44.960Z,1.50
2019-03-12T16:53:14.124Z,1.50
2019-03-12T16:55:43.397Z,1.20
2019-03-12T16:58:12.575Z,1.23
2019-03-12T17:00:41.743Z,1.50
2019-03-12T17:03:10.934Z,1.50
2019-03-12T17:05:40.132Z,1.23
2019-03-12T17:08:09.306Z,1.47
2019-03-12T17:10:38.474Z,1.47
2019-03-12T17:13:07.619Z,1.30
2019-03-12T17:15:36.749Z,1.40
2019-03-12T17:18:06.195Z,1.53
2019-03-12T17:20:35.351Z,1.20
2019-03-12T17:23:04.575Z,1.37
2019-03-12T17:25:33.731Z,1.20
2019-03-12T17:28:02.961Z,1.23
2019-03-12T17:30:32.193Z,1.13
2019-03-12T17:33:01.407Z,1.23
2019-03-12T17:35:30.639Z,1.10
2019-03-12T17:37:59.825Z,1.17
2019-03-12T17:40:28.917Z,1.80
2019-03-12T17:42:57.997Z,3.33
2019-03-12T17:45:27.122Z,1.63
2019-03-12T17:47:58.775Z,1.50
2019-03-12T17:50:27.912Z,1.20
2019-03-12T17:52:57.009Z,1.40
2019-03-12T17:55:26.259Z,1.27
2019-03-12T17:57:55.373Z,1.20
2019-03-12T18:00:28.354Z,1.53
2019-03-12T18:02:57.151Z,1.37
2019-03-12T18:05:26.277Z,1.40
2019-03-12T18:07:55.398Z,1.47
2019-03-12T18:10:24.500Z,4.50
2019-03-12T18:12:53.645Z,1.73
2019-03-12T18:15:22.745Z,1.10
2019-03-12T18:17:52.034Z,1.50
2019-03-12T18:20:21.315Z,3.40
2019-03-12T18:22:50.445Z,2.23
2019-03-12T18:25:21.898Z,2.13
2019-03-12T18:27:51.092Z,1.50
2019-03-12T18:30:20.365Z,1.77
2019-03-12T18:32:49.474Z,1.63
2019-03-12T18:35:18.743Z,1.57
2019-03-12T18:37:47.943Z,1.03
2019-03-12T18:40:18.384Z,1.40
2019-03-12T18:42:47.476Z,2.40
2019-03-12T18:45:18.873Z,1.30
2019-03-12T18:47:48.518Z,2.73
2019-03-12T18:50:17.845Z,3.23
2019-03-12T18:52:46.947Z,1.50
2019-03-12T18:55:42.523Z,1.53
2019-03-12T18:58:11.741Z,1.60
2019-03-12T19:00:41.021Z,1.43
2019-03-12T19:03:10.129Z,1.20
2019-03-12T19:05:39.225Z,1.40
2019-03-12T19:08:08.542Z,1.60
2019-03-12T19:10:37.725Z,1.57
2019-03-12T19:13:06.943Z,1.80
2019-03-12T19:15:36.107Z,2.10
2019-03-12T19:18:05.749Z,2.20
2019-03-12T19:20:34.929Z,1.53
2019-03-12T19:23:04.027Z,1.50
2019-03-12T19:25:33.330Z,1.63
2019-03-12T19:28:02.427Z,1.90
2019-03-12T19:30:31.602Z,1.57
2019-03-12T19:33:03.094Z,1.77
2019-03-12T19:35:32.233Z,1.90
2019-03-12T19:38:01.696Z,2.00
2019-03-12T19:40:31.311Z,5.67
2019-03-12T19:43:00.413Z,9.53
2019-03-12T19:45:29.657Z,8.33
2019-03-12T19:47:58.776Z,1.50
2019-03-12T19:50:27.953Z,1.60
2019-03-12T19:52:57.133Z,1.90
2019-03-12T19:55:30.084Z,1.80
2019-03-12T19:57:59.203Z,1.63
2019-03-12T20:00:29.334Z,1.43
2019-03-12T20:03:09.893Z,1.70
2019-03-12T20:05:29.302Z,1.97
2019-03-12T20:07:58.403Z,1.80
2019-03-12T20:10:51.484Z,1.90
2019-03-12T20:13:57.527Z,2.03
2019-03-12T20:17:14.178Z,1.80
2019-03-12T20:20:19.083Z,1.90
2019-03-12T20:23:18.051Z,1.60
2019-03-12T20:26:16.052Z,1.47
2019-03-12T20:29:41.239Z,1.70
2019-03-12T20:33:25.069Z,1.80
2019-03-12T20:36:35.545Z,1.57
2019-03-12T20:39:40.500Z,1.70
2019-03-12T20:43:01.888Z,1.73
2019-03-12T20:46:09.200Z,2.23
2019-03-12T20:49:11.715Z,13.80
2019-03-12T20:52:14.918Z,8.43
2019-03-12T20:55:20.250Z,4.73
2019-03-12T20:58:26.472Z,1.53
2019-03-12T21:01:14.357Z,1.70
2019-03-12T21:04:08.539Z,1.80
2019-03-12T21:07:27.810Z,1.50
2019-03-12T21:10:49.219Z,1.97
2019-03-12T21:13:54.408Z,2.30
2019-03-12T21:17:00.991Z,1.93
2019-03-12T21:20:22.734Z,1.70
2019-03-12T21:23:13.873Z,1.53
2019-03-12T21:26:31.943Z,1.60
2019-03-12T21:29:39.294Z,1.80
2019-03-12T21:32:08.400Z,1.80
2019-03-12T21:34:37.467Z,1.83
2019-03-12T21:37:06.599Z,1.50
2019-03-12T21:39:35.779Z,1.70
2019-03-12T21:42:05.497Z,1.57
2019-03-12T21:44:34.759Z,1.77
2019-03-12T21:47:03.917Z,1.70
2019-03-12T21:49:33.011Z,1.57
2019-03-12T21:52:02.213Z,2.00
2019-03-12T21:54:31.528Z,2.47
2019-03-12T21:57:00.605Z,1.93
2019-03-12T21:59:29.689Z,1.80
2019-03-12T22:01:58.797Z,2.00
2019-03-12T22:04:27.905Z,2.37
2019-03-12T22:06:56.988Z,1.43
2019-03-12T22:09:26.081Z,1.40
2019-03-12T22:11:55.161Z,1.37
2019-03-12T22:14:24.251Z,1.30
2019-03-12T22:16:56.671Z,1.50
2019-03-12T22:19:25.770Z,1.10
2019-03-12T22:22:09.810Z,1.13
2019-03-12T22:24:38.906Z,1.40
2019-03-12T22:27:08.037Z,1.50
2019-03-12T22:29:37.105Z,1.20
2019-03-12T22:32:06.289Z,1.40
2019-03-12T22:34:35.369Z,0.93
2019-03-12T22:37:04.504Z,1.00
2019-03-12T22:39:33.614Z,0.60
2019-03-12T22:42:02.746Z,0.77
2019-03-12T22:44:31.839Z,0.70
2019-03-12T22:47:00.916Z,0.67
2019-03-12T22:49:29.992Z,0.60
2019-03-12T22:51:59.064Z,0.80
2019-03-12T22:54:28.182Z,0.80
2019-03-12T22:56:57.244Z,0.70
2019-03-12T22:59:26.330Z,0.70
2019-03-12T23:01:55.516Z,0.80
2019-03-12T23:04:24.614Z,0.80
2019-03-12T23:06:53.724Z,0.90
2019-03-12T23:09:22.892Z,1.00
2019-03-12T23:11:52.014Z,0.90
2019-03-12T23:14:21.098Z,0.80
2019-03-12T23:16:50.196Z,0.70
2019-03-12T23:19:19.286Z,0.80
2019-03-12T23:21:48.356Z,0.70
2019-03-12T23:24:17.452Z,0.80
2019-03-12T23:26:46.529Z,0.90
2019-03-12T23:29:15.632Z,1.03
2019-03-12T23:31:44.760Z,0.80
2019-03-12T23:34:13.980Z,0.90
2019-03-12T23:36:43.070Z,1.13
2019-03-12T23:39:12.241Z,1.30
2019-03-12T23:41:41.324Z,1.40
2019-03-12T23:44:10.442Z,1.10
2019-03-12T23:46:39.512Z,1.47
2019-03-12T23:49:08.590Z,1.60
2019-03-12T23:51:37.699Z,1.33
2019-03-12T23:54:06.782Z,1.20
2019-03-12T23:56:35.886Z,1.20
2019-03-12T23:59:04.998Z,1.33
